sensor_id;sensor_type;location;lat;lon;timestamp;P1;durP1;ratioP1;P2;durP2;ratioP2
13208;SDS011;6669;42.678;23.332;2024-02-23T00:01:09;6.27;;;5.67;;
13208;SDS011;6669;42.678;23.332;2024-02-23T00:03:40;5.83;;;5.13;;
13208;SDS011;6669;42.678;23.332;2024-02-23T00:06:08;5.80;;;5.20;;
13208;SDS011;6669;42.678;23.332;2024-02-23T00:08:36;6.73;;;5.33;;
13208;SDS011;6669;42.678;23.332;2024-02-23T00:11:06;5.43;;;4.93;;
13208;SDS011;6669;42.678;23.332;2024-02-23T00:13:35;5.87;;;5.30;;
13208;SDS011;6669;42.678;23.332;2024-02-23T00:16:03;6.07;;;4.93;;
13208;SDS011;6669;42.678;23.332;2024-02-23T00:18:32;5.53;;;5.03;;
13208;SDS011;6669;42.678;23.332;2024-02-23T00:21:02;6.33;;;5.40;;
13208;SDS011;6669;42.678;23.332;2024-02-23T00:23:30;5.90;;;5.30;;
13208;SDS011;6669;42.678;23.332;2024-02-23T00:25:59;6.20;;;5.07;;
13208;SDS011;6669;42.678;23.332;2024-02-23T00:28:27;8.23;;;4.83;;
13208;SDS011;6669;42.678;23.332;2024-02-23T00:30:55;5.77;;;5.03;;
13208;SDS011;6669;42.678;23.332;2024-02-23T00:33:23;6.53;;;4.47;;
13208;SDS011;6669;42.678;23.332;2024-02-23T00:35:51;5.77;;;5.17;;
13208;SDS011;6669;42.678;23.332;2024-02-23T00:38:21;5.20;;;4.70;;
13208;SDS011;6669;42.678;23.332;2024-02-23T00:40:49;4.80;;;4.23;;
13208;SDS011;6669;42.678;23.332;2024-02-23T00:43:18;5.33;;;4.43;;
13208;SDS011;6669;42.678;23.332;2024-02-23T00:45:47;5.63;;;4.40;;
13208;SDS011;6669;42.678;23.332;2024-02-23T00:48:15;4.83;;;4.30;;
13208;SDS011;6669;42.678;23.332;2024-02-23T00:50:44;5.53;;;5.03;;
13208;SDS011;6669;42.678;23.332;2024-02-23T00:53:12;5.37;;;4.87;;
13208;SDS011;6669;42.678;23.332;2024-02-23T00:55:41;4.90;;;4.50;;
13208;SDS011;6669;42.678;23.332;2024-02-23T00:58:09;5.93;;;4.90;;
13208;SDS011;6669;42.678;23.332;2024-02-23T01:00:38;5.33;;;4.83;;
13208;SDS011;6669;42.678;23.332;2024-02-23T01:03:06;6.03;;;4.40;;
13208;SDS011;6669;42.678;23.332;2024-02-23T01:05:34;5.10;;;4.60;;
13208;SDS011;6669;42.678;23.332;2024-02-23T01:08:04;5.03;;;4.40;;
13208;SDS011;6669;42.678;23.332;2024-02-23T01:10:33;5.87;;;4.50;;
13208;SDS011;6669;42.678;23.332;2024-02-23T01:13:03;4.67;;;4.27;;
13208;SDS011;6669;42.678;23.332;2024-02-23T01:15:32;5.03;;;4.47;;
13208;SDS011;6669;42.678;23.332;2024-02-23T01:18:00;5.30;;;4.80;;
13208;SDS011;6669;42.678;23.332;2024-02-23T01:20:28;6.43;;;5.27;;
13208;SDS011;6669;42.678;23.332;2024-02-23T01:22:57;6.77;;;5.10;;
13208;SDS011;6669;42.678;23.332;2024-02-23T01:25:25;5.43;;;4.93;;
13208;SDS011;6669;42.678;23.332;2024-02-23T01:27:53;5.40;;;4.83;;
13208;SDS011;6669;42.678;23.332;2024-02-23T01:30:23;5.27;;;4.73;;
13208;SDS011;6669;42.678;23.332;2024-02-23T01:32:51;5.73;;;5.10;;
13208;SDS011;6669;42.678;23.332;2024-02-23T01:35:19;5.50;;;5.00;;
13208;SDS011;6669;42.678;23.332;2024-02-23T01:37:48;5.70;;;5.10;;
13208;SDS011;6669;42.678;23.332;2024-02-23T01:40:16;6.57;;;5.00;;
13208;SDS011;6669;42.678;23.332;2024-02-23T01:42:46;5.57;;;5.07;;
13208;SDS011;6669;42.678;23.332;2024-02-23T01:45:14;5.17;;;4.73;;
13208;SDS011;6669;42.678;23.332;2024-02-23T01:47:43;5.13;;;4.63;;
13208;SDS011;6669;42.678;23.332;2024-02-23T01:50:12;6.10;;;4.60;;
13208;SDS011;6669;42.678;23.332;2024-02-23T01:52:40;4.83;;;4.43;;
13208;SDS011;6669;42.678;23.332;2024-02-23T01:55:09;5.30;;;4.80;;
13208;SDS011;6669;42.678;23.332;2024-02-23T01:57:37;5.33;;;4.83;;
13208;SDS011;6669;42.678;23.332;2024-02-23T02:00:16;5.90;;;4.63;;
13208;SDS011;6669;42.678;23.332;2024-02-23T02:02:47;5.63;;;5.10;;
13208;SDS011;6669;42.678;23.332;2024-02-23T02:05:16;5.03;;;4.53;;
13208;SDS011;6669;42.678;23.332;2024-02-23T02:07:45;4.73;;;4.33;;
13208;SDS011;6669;42.678;23.332;2024-02-23T02:10:15;5.63;;;4.97;;
13208;SDS011;6669;42.678;23.332;2024-02-23T02:12:44;5.40;;;4.90;;
13208;SDS011;6669;42.678;23.332;2024-02-23T02:15:12;4.73;;;4.33;;
13208;SDS011;6669;42.678;23.332;2024-02-23T02:17:40;5.10;;;4.70;;
13208;SDS011;6669;42.678;23.332;2024-02-23T02:20:11;5.97;;;4.80;;
13208;SDS011;6669;42.678;23.332;2024-02-23T02:22:40;5.50;;;4.93;;
13208;SDS011;6669;42.678;23.332;2024-02-23T02:25:08;5.30;;;4.80;;
13208;SDS011;6669;42.678;23.332;2024-02-23T02:27:36;5.33;;;4.40;;
13208;SDS011;6669;42.678;23.332;2024-02-23T02:30:05;5.07;;;4.57;;
13208;SDS011;6669;42.678;23.332;2024-02-23T02:32:35;5.73;;;5.03;;
13208;SDS011;6669;42.678;23.332;2024-02-23T02:35:04;5.07;;;4.57;;
13208;SDS011;6669;42.678;23.332;2024-02-23T02:37:34;5.50;;;5.00;;
13208;SDS011;6669;42.678;23.332;2024-02-23T02:40:02;5.03;;;4.63;;
13208;SDS011;6669;42.678;23.332;2024-02-23T02:42:32;5.57;;;5.07;;
13208;SDS011;6669;42.678;23.332;2024-02-23T02:45:01;5.63;;;4.70;;
13208;SDS011;6669;42.678;23.332;2024-02-23T02:47:29;5.33;;;4.83;;
13208;SDS011;6669;42.678;23.332;2024-02-23T02:49:58;5.77;;;4.83;;
13208;SDS011;6669;42.678;23.332;2024-02-23T02:52:26;5.57;;;5.00;;
13208;SDS011;6669;42.678;23.332;2024-02-23T02:54:58;6.03;;;5.17;;
13208;SDS011;6669;42.678;23.332;2024-02-23T02:57:26;5.47;;;4.97;;
13208;SDS011;6669;42.678;23.332;2024-02-23T02:59:56;5.10;;;4.60;;
13208;SDS011;6669;42.678;23.332;2024-02-23T03:02:24;5.53;;;5.03;;
13208;SDS011;6669;42.678;23.332;2024-02-23T03:04:53;5.93;;;4.97;;
13208;SDS011;6669;42.678;23.332;2024-02-23T03:07:22;5.53;;;5.03;;
13208;SDS011;6669;42.678;23.332;2024-02-23T03:09:50;5.47;;;4.77;;
13208;SDS011;6669;42.678;23.332;2024-02-23T03:12:19;5.27;;;4.77;;
13208;SDS011;6669;42.678;23.332;2024-02-23T03:14:48;5.57;;;5.03;;
13208;SDS011;6669;42.678;23.332;2024-02-23T03:17:16;6.57;;;5.70;;
13208;SDS011;6669;42.678;23.332;2024-02-23T03:19:44;5.50;;;5.00;;
13208;SDS011;6669;42.678;23.332;2024-02-23T03:22:13;6.43;;;5.20;;
13208;SDS011;6669;42.678;23.332;2024-02-23T03:24:41;17.17;;;13.50;;
13208;SDS011;6669;42.678;23.332;2024-02-23T03:27:09;6.37;;;5.77;;
13208;SDS011;6669;42.678;23.332;2024-02-23T03:29:39;6.40;;;5.17;;
13208;SDS011;6669;42.678;23.332;2024-02-23T03:32:07;8.53;;;5.50;;
13208;SDS011;6669;42.678;23.332;2024-02-23T03:34:35;5.90;;;5.30;;
13208;SDS011;6669;42.678;23.332;2024-02-23T03:37:04;6.30;;;5.13;;
13208;SDS011;6669;42.678;23.332;2024-02-23T03:39:32;5.87;;;5.27;;
13208;SDS011;6669;42.678;23.332;2024-02-23T03:42:00;5.70;;;5.10;;
13208;SDS011;6669;42.678;23.332;2024-02-23T03:44:28;5.83;;;5.23;;
13208;SDS011;6669;42.678;23.332;2024-02-23T03:46:59;6.83;;;5.50;;
13208;SDS011;6669;42.678;23.332;2024-02-23T03:49:27;6.07;;;5.47;;
13208;SDS011;6669;42.678;23.332;2024-02-23T03:51:56;5.73;;;5.23;;
13208;SDS011;6669;42.678;23.332;2024-02-23T03:54:24;5.90;;;5.20;;
13208;SDS011;6669;42.678;23.332;2024-02-23T03:56:52;6.03;;;5.43;;
13208;SDS011;6669;42.678;23.332;2024-02-23T03:59:20;6.77;;;5.40;;
13208;SDS011;6669;42.678;23.332;2024-02-23T04:01:49;5.73;;;5.23;;
13208;SDS011;6669;42.678;23.332;2024-02-23T04:04:18;5.83;;;5.33;;
13208;SDS011;6669;42.678;23.332;2024-02-23T04:06:47;6.90;;;5.90;;
13208;SDS011;6669;42.678;23.332;2024-02-23T04:09:15;6.57;;;5.53;;
13208;SDS011;6669;42.678;23.332;2024-02-23T04:11:43;5.90;;;5.30;;
13208;SDS011;6669;42.678;23.332;2024-02-23T04:14:14;5.60;;;5.10;;
13208;SDS011;6669;42.678;23.332;2024-02-23T04:16:43;5.80;;;5.30;;
13208;SDS011;6669;42.678;23.332;2024-02-23T04:19:10;6.43;;;5.73;;
13208;SDS011;6669;42.678;23.332;2024-02-23T04:21:40;6.43;;;5.63;;
13208;SDS011;6669;42.678;23.332;2024-02-23T04:24:08;6.83;;;6.03;;
13208;SDS011;6669;42.678;23.332;2024-02-23T04:26:36;5.80;;;5.20;;
13208;SDS011;6669;42.678;23.332;2024-02-23T04:29:05;6.20;;;5.60;;
13208;SDS011;6669;42.678;23.332;2024-02-23T04:31:35;7.00;;;5.77;;
13208;SDS011;6669;42.678;23.332;2024-02-23T04:34:04;7.37;;;6.00;;
13208;SDS011;6669;42.678;23.332;2024-02-23T04:36:32;6.93;;;6.10;;
13208;SDS011;6669;42.678;23.332;2024-02-23T04:39:02;6.43;;;5.83;;
13208;SDS011;6669;42.678;23.332;2024-02-23T04:41:30;6.13;;;5.53;;
13208;SDS011;6669;42.678;23.332;2024-02-23T04:43:59;7.10;;;6.40;;
13208;SDS011;6669;42.678;23.332;2024-02-23T04:46:28;6.30;;;5.70;;
13208;SDS011;6669;42.678;23.332;2024-02-23T04:48:58;6.27;;;5.67;;
13208;SDS011;6669;42.678;23.332;2024-02-23T04:51:26;6.43;;;5.80;;
13208;SDS011;6669;42.678;23.332;2024-02-23T04:53:55;7.13;;;5.77;;
13208;SDS011;6669;42.678;23.332;2024-02-23T04:56:25;6.67;;;6.07;;
13208;SDS011;6669;42.678;23.332;2024-02-23T04:58:53;6.70;;;6.00;;
13208;SDS011;6669;42.678;23.332;2024-02-23T05:01:22;7.00;;;6.30;;
13208;SDS011;6669;42.678;23.332;2024-02-23T05:03:50;9.40;;;6.80;;
13208;SDS011;6669;42.678;23.332;2024-02-23T05:06:18;7.50;;;6.70;;
13208;SDS011;6669;42.678;23.332;2024-02-23T05:08:47;8.57;;;6.07;;
13208;SDS011;6669;42.678;23.332;2024-02-23T05:11:15;7.60;;;6.80;;
13208;SDS011;6669;42.678;23.332;2024-02-23T05:13:46;10.23;;;6.73;;
13208;SDS011;6669;42.678;23.332;2024-02-23T05:16:15;7.20;;;6.50;;
13208;SDS011;6669;42.678;23.332;2024-02-23T05:18:43;6.93;;;6.27;;
13208;SDS011;6669;42.678;23.332;2024-02-23T05:21:14;7.17;;;6.17;;
13208;SDS011;6669;42.678;23.332;2024-02-23T05:23:42;6.87;;;6.27;;
13208;SDS011;6669;42.678;23.332;2024-02-23T05:26:12;7.43;;;6.20;;
13208;SDS011;6669;42.678;23.332;2024-02-23T05:28:41;9.10;;;6.60;;
13208;SDS011;6669;42.678;23.332;2024-02-23T05:31:10;8.43;;;6.13;;
13208;SDS011;6669;42.678;23.332;2024-02-23T05:33:39;8.93;;;7.13;;
13208;SDS011;6669;42.678;23.332;2024-02-23T05:36:07;7.43;;;6.63;;
13208;SDS011;6669;42.678;23.332;2024-02-23T05:38:36;9.57;;;6.73;;
13208;SDS011;6669;42.678;23.332;2024-02-23T05:41:04;7.00;;;6.30;;
13208;SDS011;6669;42.678;23.332;2024-02-23T05:43:32;7.53;;;6.63;;
13208;SDS011;6669;42.678;23.332;2024-02-23T05:46:01;9.00;;;6.77;;
13208;SDS011;6669;42.678;23.332;2024-02-23T05:48:33;7.03;;;6.33;;
13208;SDS011;6669;42.678;23.332;2024-02-23T05:51:01;7.37;;;6.13;;
13208;SDS011;6669;42.678;23.332;2024-02-23T05:53:30;7.90;;;6.50;;
13208;SDS011;6669;42.678;23.332;2024-02-23T05:55:59;7.63;;;6.83;;
13208;SDS011;6669;42.678;23.332;2024-02-23T05:58:28;8.10;;;6.90;;
13208;SDS011;6669;42.678;23.332;2024-02-23T06:00:56;7.50;;;6.80;;
13208;SDS011;6669;42.678;23.332;2024-02-23T06:03:23;7.87;;;7.07;;
13208;SDS011;6669;42.678;23.332;2024-02-23T06:05:53;9.27;;;6.70;;
13208;SDS011;6669;42.678;23.332;2024-02-23T06:08:21;7.53;;;6.30;;
13208;SDS011;6669;42.678;23.332;2024-02-23T06:10:49;8.60;;;6.93;;
13208;SDS011;6669;42.678;23.332;2024-02-23T06:13:18;8.70;;;6.13;;
13208;SDS011;6669;42.678;23.332;2024-02-23T06:15:46;7.10;;;6.20;;
13208;SDS011;6669;42.678;23.332;2024-02-23T06:18:15;7.97;;;6.90;;
13208;SDS011;6669;42.678;23.332;2024-02-23T06:20:43;7.50;;;6.80;;
13208;SDS011;6669;42.678;23.332;2024-02-23T06:23:13;8.27;;;6.40;;
13208;SDS011;6669;42.678;23.332;2024-02-23T06:25:41;8.17;;;7.00;;
13208;SDS011;6669;42.678;23.332;2024-02-23T06:28:12;11.23;;;7.17;;
13208;SDS011;6669;42.678;23.332;2024-02-23T06:30:41;9.90;;;7.93;;
13208;SDS011;6669;42.678;23.332;2024-02-23T06:33:09;10.33;;;6.53;;
13208;SDS011;6669;42.678;23.332;2024-02-23T06:35:37;8.23;;;6.70;;
13208;SDS011;6669;42.678;23.332;2024-02-23T06:38:06;9.47;;;6.63;;
13208;SDS011;6669;42.678;23.332;2024-02-23T06:40:36;8.87;;;7.00;;
13208;SDS011;6669;42.678;23.332;2024-02-23T06:43:17;7.53;;;6.80;;
13208;SDS011;6669;42.678;23.332;2024-02-23T06:45:48;7.87;;;6.97;;
13208;SDS011;6669;42.678;23.332;2024-02-23T06:48:17;7.43;;;6.67;;
13208;SDS011;6669;42.678;23.332;2024-02-23T06:50:46;8.53;;;7.63;;
13208;SDS011;6669;42.678;23.332;2024-02-23T06:53:15;10.40;;;7.17;;
13208;SDS011;6669;42.678;23.332;2024-02-23T06:55:45;8.30;;;7.50;;
13208;SDS011;6669;42.678;23.332;2024-02-23T06:58:13;7.23;;;6.53;;
13208;SDS011;6669;42.678;23.332;2024-02-23T07:00:43;6.90;;;6.20;;
13208;SDS011;6669;42.678;23.332;2024-02-23T07:03:11;9.83;;;6.77;;
13208;SDS011;6669;42.678;23.332;2024-02-23T07:05:39;8.03;;;6.73;;
13208;SDS011;6669;42.678;23.332;2024-02-23T07:08:08;8.73;;;6.53;;
13208;SDS011;6669;42.678;23.332;2024-02-23T07:10:37;7.17;;;6.40;;
13208;SDS011;6669;42.678;23.332;2024-02-23T07:13:09;7.60;;;6.90;;
13208;SDS011;6669;42.678;23.332;2024-02-23T07:15:38;7.30;;;6.60;;
13208;SDS011;6669;42.678;23.332;2024-02-23T07:18:06;10.50;;;7.37;;
13208;SDS011;6669;42.678;23.332;2024-02-23T07:20:35;9.33;;;7.53;;
13208;SDS011;6669;42.678;23.332;2024-02-23T07:23:04;9.30;;;7.17;;
13208;SDS011;6669;42.678;23.332;2024-02-23T07:25:33;7.93;;;6.80;;
13208;SDS011;6669;42.678;23.332;2024-02-23T07:28:01;7.50;;;6.67;;
13208;SDS011;6669;42.678;23.332;2024-02-23T07:30:31;10.83;;;9.73;;
13208;SDS011;6669;42.678;23.332;2024-02-23T07:33:01;8.13;;;7.20;;
13208;SDS011;6669;42.678;23.332;2024-02-23T07:35:29;10.80;;;8.20;;
13208;SDS011;6669;42.678;23.332;2024-02-23T07:37:58;9.97;;;7.93;;
13208;SDS011;6669;42.678;23.332;2024-02-23T07:40:26;9.20;;;7.93;;
13208;SDS011;6669;42.678;23.332;2024-02-23T07:42:55;9.13;;;7.70;;
13208;SDS011;6669;42.678;23.332;2024-02-23T07:45:23;8.93;;;8.03;;
13208;SDS011;6669;42.678;23.332;2024-02-23T07:47:53;9.93;;;7.73;;
13208;SDS011;6669;42.678;23.332;2024-02-23T07:50:22;8.80;;;7.97;;
13208;SDS011;6669;42.678;23.332;2024-02-23T07:52:50;8.37;;;7.57;;
13208;SDS011;6669;42.678;23.332;2024-02-23T07:55:18;8.67;;;7.73;;
13208;SDS011;6669;42.678;23.332;2024-02-23T07:57:46;8.23;;;7.40;;
13208;SDS011;6669;42.678;23.332;2024-02-23T08:00:15;8.27;;;7.37;;
13208;SDS011;6669;42.678;23.332;2024-02-23T08:02:47;8.00;;;6.80;;
13208;SDS011;6669;42.678;23.332;2024-02-23T08:05:17;11.00;;;7.33;;
13208;SDS011;6669;42.678;23.332;2024-02-23T08:07:45;9.10;;;6.87;;
13208;SDS011;6669;42.678;23.332;2024-02-23T08:10:13;7.40;;;6.70;;
13208;SDS011;6669;42.678;23.332;2024-02-23T08:12:42;9.10;;;7.43;;
13208;SDS011;6669;42.678;23.332;2024-02-23T08:15:10;8.63;;;7.63;;
13208;SDS011;6669;42.678;23.332;2024-02-23T08:17:39;9.13;;;7.53;;
13208;SDS011;6669;42.678;23.332;2024-02-23T08:20:07;12.77;;;8.37;;
13208;SDS011;6669;42.678;23.332;2024-02-23T08:22:38;8.50;;;7.63;;
13208;SDS011;6669;42.678;23.332;2024-02-23T08:25:06;10.30;;;7.40;;
13208;SDS011;6669;42.678;23.332;2024-02-23T08:27:38;10.73;;;7.25;;
13208;SDS011;6669;42.678;23.332;2024-02-23T08:30:09;10.87;;;8.07;;
13208;SDS011;6669;42.678;23.332;2024-02-23T08:32:38;8.75;;;7.72;;
13208;SDS011;6669;42.678;23.332;2024-02-23T08:35:07;9.80;;;7.50;;
13208;SDS011;6669;42.678;23.332;2024-02-23T08:37:35;9.00;;;7.73;;
13208;SDS011;6669;42.678;23.332;2024-02-23T08:40:06;10.97;;;7.33;;
13208;SDS011;6669;42.678;23.332;2024-02-23T08:42:36;8.55;;;7.65;;
13208;SDS011;6669;42.678;23.332;2024-02-23T08:45:04;8.38;;;7.57;;
13208;SDS011;6669;42.678;23.332;2024-02-23T08:47:34;8.82;;;8.02;;
13208;SDS011;6669;42.678;23.332;2024-02-23T08:50:02;8.65;;;7.55;;
13208;SDS011;6669;42.678;23.332;2024-02-23T08:52:31;7.40;;;6.70;;
13208;SDS011;6669;42.678;23.332;2024-02-23T08:55:02;9.52;;;8.52;;
13208;SDS011;6669;42.678;23.332;2024-02-23T08:57:34;8.05;;;7.22;;
13208;SDS011;6669;42.678;23.332;2024-02-23T09:00:03;8.50;;;6.95;;
13208;SDS011;6669;42.678;23.332;2024-02-23T09:02:32;8.52;;;7.53;;
13208;SDS011;6669;42.678;23.332;2024-02-23T09:05:02;7.40;;;6.70;;
13208;SDS011;6669;42.678;23.332;2024-02-23T09:07:31;8.68;;;6.72;;
13208;SDS011;6669;42.678;23.332;2024-02-23T09:10:00;5.85;;;5.32;;
13208;SDS011;6669;42.678;23.332;2024-02-23T09:12:31;7.53;;;5.82;;
13208;SDS011;6669;42.678;23.332;2024-02-23T09:14:59;7.35;;;6.13;;
13208;SDS011;6669;42.678;23.332;2024-02-23T09:17:27;7.20;;;6.50;;
13208;SDS011;6669;42.678;23.332;2024-02-23T09:19:56;11.27;;;10.15;;
13208;SDS011;6669;42.678;23.332;2024-02-23T09:22:25;6.13;;;5.53;;
13208;SDS011;6669;42.678;23.332;2024-02-23T09:24:55;5.85;;;5.32;;
13208;SDS011;6669;42.678;23.332;2024-02-23T09:27:25;6.78;;;5.68;;
13208;SDS011;6669;42.678;23.332;2024-02-23T09:29:53;6.78;;;5.13;;
13208;SDS011;6669;42.678;23.332;2024-02-23T09:32:22;5.35;;;4.85;;
13208;SDS011;6669;42.678;23.332;2024-02-23T09:34:50;4.72;;;4.32;;
13208;SDS011;6669;42.678;23.332;2024-02-23T09:37:18;5.40;;;4.47;;
13208;SDS011;6669;42.678;23.332;2024-02-23T09:39:47;6.28;;;4.38;;
13208;SDS011;6669;42.678;23.332;2024-02-23T09:42:15;5.00;;;4.50;;
13208;SDS011;6669;42.678;23.332;2024-02-23T09:44:46;4.65;;;4.25;;
13208;SDS011;6669;42.678;23.332;2024-02-23T09:47:17;6.22;;;3.80;;
13208;SDS011;6669;42.678;23.332;2024-02-23T09:49:46;5.57;;;3.70;;
13208;SDS011;6669;42.678;23.332;2024-02-23T09:52:18;4.18;;;3.78;;
13208;SDS011;6669;42.678;23.332;2024-02-23T09:54:48;3.90;;;3.50;;
13208;SDS011;6669;42.678;23.332;2024-02-23T09:57:16;5.05;;;3.72;;
13208;SDS011;6669;42.678;23.332;2024-02-23T09:59:47;4.68;;;3.97;;
13208;SDS011;6669;42.678;23.332;2024-02-23T10:02:16;4.38;;;3.83;;
13208;SDS011;6669;42.678;23.332;2024-02-23T10:04:45;4.38;;;3.85;;
13208;SDS011;6669;42.678;23.332;2024-02-23T10:07:16;3.47;;;3.17;;
13208;SDS011;6669;42.678;23.332;2024-02-23T10:09:45;3.78;;;3.40;;
13208;SDS011;6669;42.678;23.332;2024-02-23T10:12:15;3.85;;;3.40;;
13208;SDS011;6669;42.678;23.332;2024-02-23T10:14:44;3.65;;;3.35;;
13208;SDS011;6669;42.678;23.332;2024-02-23T10:17:14;3.50;;;3.20;;
13208;SDS011;6669;42.678;23.332;2024-02-23T10:19:44;4.68;;;3.72;;
13208;SDS011;6669;42.678;23.332;2024-02-23T10:22:14;2.70;;;2.50;;
13208;SDS011;6669;42.678;23.332;2024-02-23T10:24:42;3.47;;;2.40;;
13208;SDS011;6669;42.678;23.332;2024-02-23T10:27:11;3.38;;;2.15;;
13208;SDS011;6669;42.678;23.332;2024-02-23T10:29:40;2.33;;;2.13;;
13208;SDS011;6669;42.678;23.332;2024-02-23T10:32:10;2.42;;;2.22;;
13208;SDS011;6669;42.678;23.332;2024-02-23T10:34:43;2.53;;;2.33;;
13208;SDS011;6669;42.678;23.332;2024-02-23T10:37:15;3.03;;;2.13;;
13208;SDS011;6669;42.678;23.332;2024-02-23T10:39:43;4.10;;;2.28;;
13208;SDS011;6669;42.678;23.332;2024-02-23T10:42:14;2.17;;;1.98;;
13208;SDS011;6669;42.678;23.332;2024-02-23T10:44:49;2.70;;;2.08;;
13208;SDS011;6669;42.678;23.332;2024-02-23T10:47:19;2.08;;;1.88;;
13208;SDS011;6669;42.678;23.332;2024-02-23T10:49:50;1.67;;;1.58;;
13208;SDS011;6669;42.678;23.332;2024-02-23T10:52:19;1.92;;;1.77;;
13208;SDS011;6669;42.678;23.332;2024-02-23T10:54:50;4.00;;;1.63;;
13208;SDS011;6669;42.678;23.332;2024-02-23T10:57:20;2.97;;;2.20;;
13208;SDS011;6669;42.678;23.332;2024-02-23T10:59:49;1.70;;;1.60;;
13208;SDS011;6669;42.678;23.332;2024-02-23T11:02:18;1.90;;;1.80;;
13208;SDS011;6669;42.678;23.332;2024-02-23T11:04:48;2.08;;;1.88;;
13208;SDS011;6669;42.678;23.332;2024-02-23T11:07:18;2.00;;;1.80;;
13208;SDS011;6669;42.678;23.332;2024-02-23T11:09:48;2.05;;;1.85;;
13208;SDS011;6669;42.678;23.332;2024-02-23T11:12:22;1.90;;;1.80;;
13208;SDS011;6669;42.678;23.332;2024-02-23T11:14:56;1.90;;;1.80;;
13208;SDS011;6669;42.678;23.332;2024-02-23T11:17:28;1.80;;;1.67;;
13208;SDS011;6669;42.678;23.332;2024-02-23T11:20:02;1.80;;;1.70;;
13208;SDS011;6669;42.678;23.332;2024-02-23T11:22:32;1.77;;;1.67;;
13208;SDS011;6669;42.678;23.332;2024-02-23T11:25:05;3.25;;;1.83;;
13208;SDS011;6669;42.678;23.332;2024-02-23T11:27:37;3.42;;;1.65;;
13208;SDS011;6669;42.678;23.332;2024-02-23T11:30:08;2.53;;;1.67;;
13208;SDS011;6669;42.678;23.332;2024-02-23T11:32:40;2.28;;;1.70;;
13208;SDS011;6669;42.678;23.332;2024-02-23T11:35:11;2.03;;;1.60;;
13208;SDS011;6669;42.678;23.332;2024-02-23T11:37:47;1.60;;;1.50;;
13208;SDS011;6669;42.678;23.332;2024-02-23T11:40:17;2.47;;;1.70;;
13208;SDS011;6669;42.678;23.332;2024-02-23T11:42:47;1.95;;;1.42;;
13208;SDS011;6669;42.678;23.332;2024-02-23T11:45:17;1.73;;;1.48;;
13208;SDS011;6669;42.678;23.332;2024-02-23T11:47:46;1.92;;;1.80;;
13208;SDS011;6669;42.678;23.332;2024-02-23T11:50:15;2.03;;;1.88;;
13208;SDS011;6669;42.678;23.332;2024-02-23T11:52:47;1.63;;;1.45;;
13208;SDS011;6669;42.678;23.332;2024-02-23T11:55:18;1.60;;;1.50;;
13208;SDS011;6669;42.678;23.332;2024-02-23T11:57:49;1.77;;;1.55;;
13208;SDS011;6669;42.678;23.332;2024-02-23T12:00:30;1.67;;;1.52;;
13208;SDS011;6669;42.678;23.332;2024-02-23T12:03:00;2.40;;;1.80;;
13208;SDS011;6669;42.678;23.332;2024-02-23T12:05:29;1.63;;;1.52;;
13208;SDS011;6669;42.678;23.332;2024-02-23T12:07:58;2.03;;;1.48;;
13208;SDS011;6669;42.678;23.332;2024-02-23T12:10:31;1.70;;;1.60;;
13208;SDS011;6669;42.678;23.332;2024-02-23T12:12:59;1.80;;;1.70;;
13208;SDS011;6669;42.678;23.332;2024-02-23T12:15:28;2.08;;;1.55;;
13208;SDS011;6669;42.678;23.332;2024-02-23T12:17:57;1.70;;;1.60;;
13208;SDS011;6669;42.678;23.332;2024-02-23T12:20:28;1.70;;;1.60;;
13208;SDS011;6669;42.678;23.332;2024-02-23T12:23:01;2.20;;;1.48;;
13208;SDS011;6669;42.678;23.332;2024-02-23T12:25:29;2.88;;;1.77;;
13208;SDS011;6669;42.678;23.332;2024-02-23T12:27:57;1.58;;;1.48;;
13208;SDS011;6669;42.678;23.332;2024-02-23T12:30:26;2.17;;;1.60;;
13208;SDS011;6669;42.678;23.332;2024-02-23T12:33:04;1.50;;;1.40;;
13208;SDS011;6669;42.678;23.332;2024-02-23T12:35:36;3.08;;;1.45;;
13208;SDS011;6669;42.678;23.332;2024-02-23T12:38:05;1.92;;;1.60;;
13208;SDS011;6669;42.678;23.332;2024-02-23T12:40:34;2.30;;;1.63;;
13208;SDS011;6669;42.678;23.332;2024-02-23T12:43:02;2.88;;;2.00;;
13208;SDS011;6669;42.678;23.332;2024-02-23T12:45:30;2.72;;;1.60;;
13208;SDS011;6669;42.678;23.332;2024-02-23T12:47:58;1.85;;;1.75;;
13208;SDS011;6669;42.678;23.332;2024-02-23T12:50:28;2.90;;;1.90;;
13208;SDS011;6669;42.678;23.332;2024-02-23T12:52:59;2.92;;;1.60;;
13208;SDS011;6669;42.678;23.332;2024-02-23T12:55:28;3.47;;;2.20;;
13208;SDS011;6669;42.678;23.332;2024-02-23T12:57:56;2.10;;;1.70;;
13208;SDS011;6669;42.678;23.332;2024-02-23T13:00:25;3.75;;;3.35;;
13208;SDS011;6669;42.678;23.332;2024-02-23T13:02:54;1.50;;;1.40;;
13208;SDS011;6669;42.678;23.332;2024-02-23T13:05:22;1.65;;;1.50;;
13208;SDS011;6669;42.678;23.332;2024-02-23T13:07:50;3.60;;;1.80;;
13208;SDS011;6669;42.678;23.332;2024-02-23T13:10:20;2.10;;;1.67;;
13208;SDS011;6669;42.678;23.332;2024-02-23T13:12:49;2.40;;;1.77;;
13208;SDS011;6669;42.678;23.332;2024-02-23T13:15:17;1.60;;;1.50;;
13208;SDS011;6669;42.678;23.332;2024-02-23T13:17:47;2.05;;;1.50;;
13208;SDS011;6669;42.678;23.332;2024-02-23T13:20:15;1.98;;;1.50;;
13208;SDS011;6669;42.678;23.332;2024-02-23T13:22:44;2.70;;;2.50;;
13208;SDS011;6669;42.678;23.332;2024-02-23T13:25:14;4.93;;;1.85;;
13208;SDS011;6669;42.678;23.332;2024-02-23T13:27:44;1.67;;;1.58;;
13208;SDS011;6669;42.678;23.332;2024-02-23T13:30:12;1.45;;;1.35;;
13208;SDS011;6669;42.678;23.332;2024-02-23T13:32:41;1.55;;;1.40;;
13208;SDS011;6669;42.678;23.332;2024-02-23T13:35:10;1.73;;;1.50;;
13208;SDS011;6669;42.678;23.332;2024-02-23T13:37:40;2.00;;;1.80;;
13208;SDS011;6669;42.678;23.332;2024-02-23T13:40:09;2.05;;;1.70;;
13208;SDS011;6669;42.678;23.332;2024-02-23T13:42:38;2.60;;;1.42;;
13208;SDS011;6669;42.678;23.332;2024-02-23T13:45:08;1.98;;;1.70;;
13208;SDS011;6669;42.678;23.332;2024-02-23T13:47:36;1.88;;;1.70;;
13208;SDS011;6669;42.678;23.332;2024-02-23T13:50:05;2.53;;;1.70;;
13208;SDS011;6669;42.678;23.332;2024-02-23T13:52:35;2.30;;;1.50;;
13208;SDS011;6669;42.678;23.332;2024-02-23T13:55:04;1.50;;;1.40;;
13208;SDS011;6669;42.678;23.332;2024-02-23T13:57:33;1.73;;;1.42;;
13208;SDS011;6669;42.678;23.332;2024-02-23T14:00:01;2.63;;;1.92;;
13208;SDS011;6669;42.678;23.332;2024-02-23T14:02:31;2.20;;;1.58;;
13208;SDS011;6669;42.678;23.332;2024-02-23T14:05:02;1.55;;;1.45;;
13208;SDS011;6669;42.678;23.332;2024-02-23T14:07:33;3.17;;;1.70;;
13208;SDS011;6669;42.678;23.332;2024-02-23T14:10:02;2.55;;;1.80;;
13208;SDS011;6669;42.678;23.332;2024-02-23T14:12:31;1.52;;;1.42;;
13208;SDS011;6669;42.678;23.332;2024-02-23T14:14:59;2.55;;;1.50;;
13208;SDS011;6669;42.678;23.332;2024-02-23T14:17:28;1.50;;;1.40;;
13208;SDS011;6669;42.678;23.332;2024-02-23T14:19:58;1.75;;;1.65;;
13208;SDS011;6669;42.678;23.332;2024-02-23T14:22:26;2.78;;;1.60;;
13208;SDS011;6669;42.678;23.332;2024-02-23T14:24:55;1.77;;;1.67;;
13208;SDS011;6669;42.678;23.332;2024-02-23T14:27:23;1.67;;;1.58;;
13208;SDS011;6669;42.678;23.332;2024-02-23T14:29:56;1.65;;;1.55;;
13208;SDS011;6669;42.678;23.332;2024-02-23T14:32:24;3.30;;;1.75;;
13208;SDS011;6669;42.678;23.332;2024-02-23T14:34:53;2.00;;;1.80;;
13208;SDS011;6669;42.678;23.332;2024-02-23T14:37:23;1.63;;;1.52;;
13208;SDS011;6669;42.678;23.332;2024-02-23T14:39:52;2.08;;;1.83;;
13208;SDS011;6669;42.678;23.332;2024-02-23T14:42:20;1.88;;;1.67;;
13208;SDS011;6669;42.678;23.332;2024-02-23T14:44:49;1.75;;;1.65;;
13208;SDS011;6669;42.678;23.332;2024-02-23T14:47:17;1.90;;;1.67;;
13208;SDS011;6669;42.678;23.332;2024-02-23T14:49:54;2.42;;;1.60;;
13208;SDS011;6669;42.678;23.332;2024-02-23T14:52:24;2.45;;;2.25;;
13208;SDS011;6669;42.678;23.332;2024-02-23T14:54:53;4.35;;;1.95;;
13208;SDS011;6669;42.678;23.332;2024-02-23T14:57:21;2.50;;;1.85;;
13208;SDS011;6669;42.678;23.332;2024-02-23T14:59:49;2.50;;;1.75;;